createdAt,value
2018-08-30T00:01:25.915Z,9.03
2018-08-30T00:04:01.070Z,6.25
2018-08-30T00:06:36.123Z,3.17
2018-08-30T00:09:10.868Z,3.42
2018-08-30T00:11:45.592Z,2.65
2018-08-30T00:14:20.304Z,3.08
2018-08-30T00:16:55.238Z,2.85
2018-08-30T00:19:30.075Z,2.58
2018-08-30T00:22:04.924Z,2.50
2018-08-30T00:24:39.894Z,2.87
2018-08-30T00:27:14.697Z,2.92
2018-08-30T00:29:49.524Z,2.70
2018-08-30T00:32:24.269Z,3.35
2018-08-30T00:34:59.132Z,2.70
2018-08-30T00:37:34.868Z,3.30
2018-08-30T00:40:09.873Z,2.27
2018-08-30T00:42:44.451Z,3.10
2018-08-30T00:45:19.423Z,2.62
2018-08-30T00:47:54.518Z,2.35
2018-08-30T00:50:29.217Z,2.50
2018-08-30T00:53:04.097Z,1.75
2018-08-30T00:55:38.795Z,2.25
2018-08-30T00:58:13.304Z,2.45
2018-08-30T01:00:48.266Z,2.30
2018-08-30T01:03:23.850Z,3.22
2018-08-30T01:05:58.876Z,6.25
2018-08-30T01:08:33.943Z,5.50
2018-08-30T01:11:08.833Z,4.65
2018-08-30T01:13:43.811Z,2.60
2018-08-30T01:16:18.623Z,2.00
2018-08-30T01:18:53.517Z,3.00
2018-08-30T01:21:28.573Z,2.42
2018-08-30T01:24:03.575Z,2.17
2018-08-30T01:26:38.447Z,2.15
2018-08-30T01:29:13.447Z,3.20
2018-08-30T01:31:48.863Z,2.77
2018-08-30T01:34:23.845Z,2.22
2018-08-30T01:36:58.644Z,2.10
2018-08-30T01:39:33.723Z,2.40
2018-08-30T01:42:08.546Z,2.98
2018-08-30T01:44:43.531Z,2.85
2018-08-30T01:47:18.412Z,2.42
2018-08-30T01:49:53.401Z,2.67
2018-08-30T01:52:28.257Z,2.62
2018-08-30T01:55:03.071Z,3.00
2018-08-30T01:57:38.365Z,3.30
2018-08-30T02:00:13.098Z,2.50
2018-08-30T02:02:47.736Z,2.10
2018-08-30T02:05:22.395Z,3.15
2018-08-30T02:07:57.258Z,2.75
2018-08-30T02:10:32.196Z,2.65
2018-08-30T02:13:06.901Z,2.55
2018-08-30T02:15:41.875Z,3.35
2018-08-30T02:18:16.851Z,3.60
2018-08-30T02:20:51.690Z,7.12
2018-08-30T02:23:26.559Z,14.68
2018-08-30T02:26:01.556Z,4.42
2018-08-30T02:28:36.315Z,4.08
2018-08-30T02:31:11.235Z,2.98
2018-08-30T02:33:46.257Z,2.42
2018-08-30T02:36:21.124Z,2.40
2018-08-30T02:38:55.945Z,2.27
2018-08-30T02:41:30.820Z,3.47
2018-08-30T02:44:05.909Z,2.40
2018-08-30T02:46:40.989Z,2.62
2018-08-30T02:49:15.873Z,3.00
2018-08-30T02:51:50.590Z,2.70
2018-08-30T02:54:25.557Z,2.90
2018-08-30T02:57:00.397Z,2.92
2018-08-30T02:59:35.454Z,2.20
2018-08-30T03:02:10.356Z,3.17
2018-08-30T03:04:45.175Z,2.65
2018-08-30T03:07:19.971Z,3.72
2018-08-30T03:09:54.567Z,3.22
2018-08-30T03:12:29.244Z,2.87
2018-08-30T03:15:09.508Z,2.92
2018-08-30T03:17:44.282Z,3.37
2018-08-30T03:20:19.087Z,3.33
2018-08-30T03:22:53.731Z,2.55
2018-08-30T03:25:28.431Z,2.50
2018-08-30T03:28:03.270Z,3.40
2018-08-30T03:30:37.583Z,6.92
2018-08-30T03:33:11.892Z,5.87
2018-08-30T03:35:46.209Z,6.83
2018-08-30T03:38:20.831Z,3.80
2018-08-30T03:40:55.115Z,3.02
2018-08-30T03:43:29.496Z,2.98
2018-08-30T03:46:03.912Z,3.65
2018-08-30T03:48:38.236Z,2.85
2018-08-30T03:51:12.595Z,2.75
2018-08-30T03:53:46.935Z,2.50
2018-08-30T03:56:21.432Z,2.70
2018-08-30T03:58:55.739Z,3.30
2018-08-30T04:01:30.143Z,3.45
2018-08-30T04:04:04.490Z,3.08
2018-08-30T04:06:38.886Z,2.95
2018-08-30T04:09:13.287Z,2.92
2018-08-30T04:11:47.635Z,3.30
2018-08-30T04:14:21.964Z,3.10
2018-08-30T04:16:56.355Z,3.25
2018-08-30T04:19:30.742Z,2.80
2018-08-30T04:22:05.740Z,3.15
2018-08-30T04:24:40.014Z,3.65
2018-08-30T04:27:14.343Z,2.60
2018-08-30T04:29:48.696Z,2.55
2018-08-30T04:32:23.032Z,3.60
2018-08-30T04:34:57.395Z,3.50
2018-08-30T04:37:31.807Z,44.48
2018-08-30T04:40:06.208Z,4.37
2018-08-30T04:42:40.684Z,4.45
2018-08-30T04:45:15.099Z,4.10
2018-08-30T04:47:49.520Z,3.10
2018-08-30T04:50:23.820Z,3.05
2018-08-30T04:52:58.027Z,3.10
2018-08-30T04:55:32.465Z,2.45
2018-08-30T04:58:06.773Z,3.22
2018-08-30T05:00:41.151Z,2.90
2018-08-30T05:03:15.572Z,3.70
2018-08-30T05:05:49.878Z,3.47
2018-08-30T05:08:25.040Z,3.67
2018-08-30T05:10:59.383Z,3.33
2018-08-30T05:13:33.703Z,4.00
2018-08-30T05:16:08.015Z,3.52
2018-08-30T05:18:42.267Z,3.67
2018-08-30T05:21:16.727Z,3.90
2018-08-30T05:23:51.174Z,3.65
2018-08-30T05:26:25.531Z,2.30
2018-08-30T05:29:00.071Z,2.15
2018-08-30T05:31:34.372Z,2.00
2018-08-30T05:34:08.704Z,4.78
2018-08-30T05:36:43.048Z,4.92
2018-08-30T05:39:17.561Z,3.87
2018-08-30T05:41:51.835Z,7.87
2018-08-30T05:44:26.194Z,3.85
2018-08-30T05:47:00.593Z,2.00
2018-08-30T05:49:34.920Z,1.50
2018-08-30T05:52:09.197Z,1.72
2018-08-30T05:54:43.646Z,1.90
2018-08-30T05:57:17.951Z,2.35
2018-08-30T05:59:52.486Z,2.08
2018-08-30T06:02:28.271Z,2.08
2018-08-30T06:05:02.696Z,1.82
2018-08-30T06:07:37.108Z,2.05
2018-08-30T06:10:11.494Z,2.20
2018-08-30T06:12:45.797Z,1.70
2018-08-30T06:15:20.184Z,2.33
2018-08-30T06:17:54.477Z,2.25
2018-08-30T06:20:28.834Z,1.98
2018-08-30T06:23:03.252Z,1.80
2018-08-30T06:25:37.606Z,2.65
2018-08-30T06:28:12.033Z,1.87
2018-08-30T06:30:46.288Z,1.85
2018-08-30T06:33:20.547Z,1.87
2018-08-30T06:35:54.848Z,1.80
2018-08-30T06:38:29.173Z,3.27
2018-08-30T06:41:03.521Z,3.92
2018-08-30T06:43:37.778Z,3.25
2018-08-30T06:46:12.128Z,2.22
2018-08-30T06:48:46.546Z,2.00
2018-08-30T06:51:20.900Z,1.50
2018-08-30T06:53:55.127Z,2.62
2018-08-30T06:56:29.804Z,1.87
2018-08-30T06:59:04.176Z,1.80
2018-08-30T07:01:38.824Z,1.80
2018-08-30T07:04:13.361Z,1.42
2018-08-30T07:06:47.836Z,2.08
2018-08-30T07:09:22.445Z,1.62
2018-08-30T07:11:56.877Z,1.65
2018-08-30T07:14:31.377Z,1.75
2018-08-30T07:17:05.835Z,1.70
2018-08-30T07:19:40.125Z,1.77
2018-08-30T07:22:14.510Z,1.67
2018-08-30T07:24:48.892Z,1.67
2018-08-30T07:27:23.139Z,1.65
2018-08-30T07:29:57.426Z,1.90
2018-08-30T07:32:31.730Z,1.70
2018-08-30T07:35:06.261Z,1.85
2018-08-30T07:37:40.653Z,2.52
2018-08-30T07:40:15.087Z,3.62
2018-08-30T07:42:49.346Z,3.55
2018-08-30T07:45:23.727Z,3.98
2018-08-30T07:47:58.099Z,2.80
2018-08-30T07:50:32.561Z,1.80
2018-08-30T07:53:07.031Z,1.85
2018-08-30T07:55:41.337Z,2.20
2018-08-30T07:58:15.682Z,1.95
2018-08-30T08:00:50.078Z,2.15
2018-08-30T08:03:24.477Z,2.65
2018-08-30T08:05:58.789Z,2.60
2018-08-30T08:08:33.288Z,2.75
2018-08-30T08:11:07.606Z,2.20
2018-08-30T08:13:41.913Z,2.70
2018-08-30T08:16:16.263Z,2.52
2018-08-30T08:18:50.599Z,2.50
2018-08-30T08:21:24.981Z,2.60
2018-08-30T08:23:59.416Z,2.30
2018-08-30T08:26:33.871Z,3.42
2018-08-30T08:29:08.308Z,3.42
2018-08-30T08:31:42.667Z,3.65
2018-08-30T08:34:16.903Z,3.92
2018-08-30T08:36:51.335Z,3.27
2018-08-30T08:39:25.626Z,4.33
2018-08-30T08:42:00.132Z,4.70
2018-08-30T08:44:34.574Z,5.60
2018-08-30T08:47:08.875Z,6.85
2018-08-30T08:49:43.155Z,5.15
2018-08-30T08:52:17.623Z,3.45
2018-08-30T08:54:51.906Z,4.42
2018-08-30T08:57:26.240Z,4.25
2018-08-30T09:00:00.770Z,4.45
2018-08-30T09:02:35.166Z,4.00
2018-08-30T09:05:10.123Z,3.92
2018-08-30T09:07:44.473Z,4.70
2018-08-30T09:10:18.972Z,4.60
2018-08-30T09:12:53.376Z,4.60
2018-08-30T09:15:27.754Z,4.92
2018-08-30T09:18:02.064Z,3.65
2018-08-30T09:20:36.588Z,4.50
2018-08-30T09:23:10.875Z,4.33
2018-08-30T09:25:45.248Z,4.47
2018-08-30T09:28:19.652Z,4.00
2018-08-30T09:30:54.000Z,4.85
2018-08-30T09:33:28.291Z,5.12
2018-08-30T09:36:02.654Z,4.75
2018-08-30T09:38:36.972Z,5.10
2018-08-30T09:41:11.402Z,5.33
2018-08-30T09:43:45.871Z,5.80
2018-08-30T09:46:20.355Z,7.30
2018-08-30T09:48:54.804Z,6.25
2018-08-30T09:51:29.143Z,7.72
2018-08-30T09:54:03.557Z,5.67
2018-08-30T09:56:37.915Z,5.80
2018-08-30T09:59:12.193Z,6.12
2018-08-30T10:01:49.828Z,5.53
2018-08-30T10:04:24.260Z,5.80
2018-08-30T10:06:58.783Z,4.95
2018-08-30T10:09:33.148Z,5.97
2018-08-30T10:12:07.479Z,4.70
2018-08-30T10:14:41.930Z,5.05
2018-08-30T10:17:16.435Z,5.33
2018-08-30T10:19:50.828Z,5.35
2018-08-30T10:22:25.257Z,4.15
2018-08-30T10:24:59.596Z,4.25
2018-08-30T10:27:33.931Z,3.60
2018-08-30T10:30:08.392Z,3.92
2018-08-30T10:32:42.715Z,3.80
2018-08-30T10:35:17.069Z,3.85
2018-08-30T10:37:51.441Z,3.92
2018-08-30T10:40:25.790Z,4.78
2018-08-30T10:43:00.133Z,4.22
2018-08-30T10:45:34.424Z,5.90
2018-08-30T10:48:08.866Z,9.00
2018-08-30T10:50:43.167Z,8.83
2018-08-30T10:53:17.592Z,6.10
2018-08-30T10:55:51.817Z,5.15
2018-08-30T10:58:26.219Z,3.47
2018-08-30T11:01:00.474Z,4.00
2018-08-30T11:03:34.811Z,4.75
2018-08-30T11:06:09.225Z,5.92
2018-08-30T11:08:43.504Z,5.95
2018-08-30T11:11:17.955Z,5.95
2018-08-30T11:13:52.403Z,6.78
2018-08-30T11:16:26.706Z,11.30
2018-08-30T11:19:01.070Z,11.30
2018-08-30T11:21:35.403Z,8.25
2018-08-30T11:24:10.230Z,8.65
2018-08-30T11:26:44.488Z,8.60
2018-08-30T11:29:18.816Z,7.92
2018-08-30T11:31:53.089Z,8.00
2018-08-30T11:34:27.538Z,8.30
2018-08-30T11:37:01.916Z,6.30
2018-08-30T11:39:36.259Z,5.78
2018-08-30T11:42:10.552Z,5.15
2018-08-30T11:44:44.924Z,5.78
2018-08-30T11:47:19.211Z,5.08
2018-08-30T11:49:53.531Z,6.10
2018-08-30T11:52:27.812Z,6.15
2018-08-30T11:55:02.559Z,5.47
2018-08-30T11:57:36.911Z,5.72
2018-08-30T12:00:11.523Z,5.53
2018-08-30T12:02:46.328Z,4.80
2018-08-30T12:05:20.783Z,5.75
2018-08-30T12:07:55.378Z,5.25
2018-08-30T12:10:30.320Z,5.83
2018-08-30T12:13:04.616Z,7.00
2018-08-30T12:15:39.083Z,6.45
2018-08-30T12:18:13.453Z,8.40
2018-08-30T12:20:47.893Z,7.97
2018-08-30T12:23:22.107Z,6.10
2018-08-30T12:25:56.359Z,5.70
2018-08-30T12:28:30.926Z,5.80
2018-08-30T12:31:05.479Z,6.15
2018-08-30T12:33:40.099Z,5.65
2018-08-30T12:36:14.451Z,5.90
2018-08-30T12:38:48.807Z,5.40
2018-08-30T12:41:23.053Z,6.20
2018-08-30T12:43:57.553Z,6.83
2018-08-30T12:46:31.717Z,5.65
2018-08-30T12:49:06.009Z,6.08
2018-08-30T12:51:40.610Z,5.20
2018-08-30T12:54:14.817Z,5.70
2018-08-30T12:56:49.115Z,5.25
2018-08-30T12:59:28.942Z,5.83
2018-08-30T13:02:03.180Z,4.80
2018-08-30T13:04:37.731Z,6.80
2018-08-30T13:07:11.938Z,5.33
2018-08-30T13:09:46.420Z,5.47
2018-08-30T13:12:20.938Z,5.12
2018-08-30T13:14:55.247Z,6.28
2018-08-30T13:17:29.652Z,6.15
2018-08-30T13:20:04.075Z,7.05
2018-08-30T13:22:38.413Z,6.90
2018-08-30T13:25:12.722Z,7.62
2018-08-30T13:27:47.194Z,6.53
2018-08-30T13:30:21.584Z,6.30
2018-08-30T13:32:56.238Z,7.15
2018-08-30T13:35:30.430Z,6.92
2018-08-30T13:38:05.254Z,6.78
2018-08-30T13:40:39.479Z,7.30
2018-08-30T13:43:13.784Z,7.65
2018-08-30T13:45:48.003Z,9.10
2018-08-30T13:48:22.538Z,8.58
2018-08-30T13:50:56.865Z,7.28
2018-08-30T13:53:31.415Z,6.90
2018-08-30T13:56:05.623Z,7.47
2018-08-30T13:58:40.800Z,6.75
2018-08-30T14:01:15.267Z,7.40
2018-08-30T14:03:49.270Z,6.65
2018-08-30T14:06:23.571Z,6.85
2018-08-30T14:08:57.912Z,7.20
2018-08-30T14:11:32.329Z,7.33
2018-08-30T14:14:06.720Z,7.65
2018-08-30T14:16:40.770Z,6.80
2018-08-30T14:19:15.154Z,6.60
2018-08-30T14:21:49.573Z,6.78
2018-08-30T14:24:24.038Z,6.58
2018-08-30T14:26:58.671Z,6.92
2018-08-30T14:29:33.012Z,7.33
2018-08-30T14:32:07.471Z,6.60
2018-08-30T14:34:41.794Z,7.85
2018-08-30T14:37:16.108Z,6.62
2018-08-30T14:39:50.499Z,7.85
2018-08-30T14:42:24.923Z,8.40
2018-08-30T14:44:59.623Z,7.22
2018-08-30T14:47:34.111Z,9.30
2018-08-30T14:50:08.387Z,9.20
2018-08-30T14:52:42.674Z,7.40
2018-08-30T14:55:17.048Z,7.03
2018-08-30T14:57:51.549Z,7.33
2018-08-30T15:00:26.009Z,7.53
2018-08-30T15:03:00.193Z,8.35
2018-08-30T15:05:34.748Z,8.23
2018-08-30T15:08:09.071Z,7.90
2018-08-30T15:10:43.295Z,8.25
2018-08-30T15:13:17.568Z,7.42
2018-08-30T15:15:51.824Z,7.30
2018-08-30T15:18:26.240Z,7.37
2018-08-30T15:21:00.639Z,7.67
2018-08-30T15:23:35.396Z,7.67
2018-08-30T15:26:09.616Z,8.75
2018-08-30T15:28:44.119Z,7.15
2018-08-30T15:31:18.581Z,6.00
2018-08-30T15:33:52.843Z,6.92
2018-08-30T15:36:27.308Z,7.95
2018-08-30T15:39:01.771Z,6.10
2018-08-30T15:41:36.143Z,6.70
2018-08-30T15:44:10.486Z,6.10
2018-08-30T15:46:44.845Z,6.80
2018-08-30T15:49:19.260Z,10.25
2018-08-30T15:51:53.559Z,7.37
2018-08-30T15:54:27.859Z,10.05
2018-08-30T15:57:02.150Z,8.25
2018-08-30T15:59:36.532Z,7.50
2018-08-30T16:02:10.865Z,9.00
2018-08-30T16:04:45.309Z,8.15
2018-08-30T16:07:19.658Z,8.45
2018-08-30T16:09:53.978Z,7.42
2018-08-30T16:12:28.368Z,7.15
2018-08-30T16:15:02.711Z,6.78
2018-08-30T16:17:37.151Z,7.25
2018-08-30T16:20:11.672Z,7.12
2018-08-30T16:23:03.584Z,7.30
2018-08-30T16:25:37.919Z,6.62
2018-08-30T16:28:12.191Z,7.17
2018-08-30T16:30:46.651Z,6.47
2018-08-30T16:33:21.208Z,7.78
2018-08-30T16:35:55.615Z,6.33
2018-08-30T16:38:29.915Z,7.00
2018-08-30T16:41:04.210Z,6.62
2018-08-30T16:43:38.572Z,8.68
2018-08-30T16:46:12.992Z,9.95
2018-08-30T16:48:47.472Z,11.33
2018-08-30T16:51:21.739Z,9.73
2018-08-30T16:53:56.116Z,8.45
2018-08-30T16:56:30.534Z,6.95
2018-08-30T16:59:05.352Z,6.47
2018-08-30T17:01:39.767Z,7.03
2018-08-30T17:04:14.060Z,6.15
2018-08-30T17:06:48.311Z,7.67
2018-08-30T17:09:22.734Z,6.62
2018-08-30T17:11:57.128Z,7.20
2018-08-30T17:14:31.387Z,6.80
2018-08-30T17:17:05.772Z,7.53
2018-08-30T17:19:40.100Z,8.05
2018-08-30T17:22:14.538Z,8.13
2018-08-30T17:24:48.881Z,7.95
2018-08-30T17:27:23.255Z,7.85
2018-08-30T17:29:57.682Z,8.05
2018-08-30T17:32:31.932Z,8.53
2018-08-30T17:35:06.817Z,7.70
2018-08-30T17:37:41.328Z,8.75
2018-08-30T17:40:15.553Z,8.18
2018-08-30T17:42:50.596Z,9.10
2018-08-30T17:45:25.029Z,8.65
2018-08-30T17:47:59.347Z,8.98
2018-08-30T17:50:33.729Z,12.58
2018-08-30T17:53:08.091Z,11.40
2018-08-30T17:55:42.530Z,8.68
2018-08-30T17:58:16.911Z,8.95
2018-08-30T18:00:51.267Z,8.70
2018-08-30T18:03:25.627Z,8.43
2018-08-30T18:06:00.052Z,8.40
2018-08-30T18:08:34.370Z,8.85
2018-08-30T18:11:08.663Z,8.68
2018-08-30T18:13:43.030Z,8.70
2018-08-30T18:16:17.441Z,8.95
2018-08-30T18:18:51.931Z,7.28
2018-08-30T18:21:26.514Z,9.23
2018-08-30T18:24:01.024Z,11.90
2018-08-30T18:26:35.251Z,12.88
2018-08-30T18:29:09.642Z,16.42
2018-08-30T18:31:44.091Z,16.10
2018-08-30T18:34:18.609Z,15.15
2018-08-30T18:36:53.069Z,11.55
2018-08-30T18:39:27.547Z,9.38
2018-08-30T18:42:01.999Z,10.58
2018-08-30T18:44:36.494Z,9.45
2018-08-30T18:47:11.036Z,9.38
2018-08-30T18:49:45.519Z,9.28
2018-08-30T18:52:19.923Z,8.25
2018-08-30T18:54:54.423Z,10.08
2018-08-30T18:57:28.779Z,10.63
2018-08-30T19:00:03.200Z,9.53
2018-08-30T19:02:37.641Z,8.48
2018-08-30T19:05:12.031Z,8.95
2018-08-30T19:07:46.368Z,9.08
2018-08-30T19:10:20.700Z,8.53
2018-08-30T19:12:55.318Z,8.53
2018-08-30T19:15:35.108Z,9.58
2018-08-30T19:18:15.076Z,8.70
2018-08-30T19:20:49.437Z,8.48
2018-08-30T19:23:23.876Z,8.03
2018-08-30T19:25:59.046Z,8.95
2018-08-30T19:28:33.575Z,10.68
2018-08-30T19:31:07.839Z,9.50
2018-08-30T19:33:42.100Z,9.15
2018-08-30T19:36:21.914Z,9.78
2018-08-30T19:38:56.324Z,9.95
2018-08-30T19:41:30.635Z,9.58
2018-08-30T19:44:04.878Z,9.53
2018-08-30T19:46:39.209Z,10.00
2018-08-30T19:49:13.643Z,10.00
2018-08-30T19:51:48.026Z,10.20
2018-08-30T19:54:22.384Z,11.40
2018-08-30T19:56:56.786Z,11.08
2018-08-30T19:59:31.184Z,12.28
2018-08-30T20:02:05.671Z,11.43
2018-08-30T20:04:39.963Z,10.28
2018-08-30T20:07:14.541Z,10.60
2018-08-30T20:09:49.108Z,9.48
2018-08-30T20:12:23.449Z,11.57
2018-08-30T20:14:58.402Z,9.50
2018-08-30T20:17:32.870Z,10.75
2018-08-30T20:20:07.472Z,10.55
2018-08-30T20:22:41.825Z,11.30
2018-08-30T20:25:16.243Z,9.90
2018-08-30T20:27:50.602Z,11.28
2018-08-30T20:30:25.008Z,10.60
2018-08-30T20:32:59.422Z,10.00
2018-08-30T20:35:33.724Z,11.45
2018-08-30T20:38:08.111Z,9.20
2018-08-30T20:40:42.437Z,10.58
2018-08-30T20:43:16.723Z,10.50
2018-08-30T20:45:51.048Z,11.08
2018-08-30T20:48:25.474Z,10.95
2018-08-30T20:50:59.985Z,11.35
2018-08-30T20:53:34.318Z,10.45
2018-08-30T20:56:08.693Z,11.25
2018-08-30T20:58:43.158Z,12.05
2018-08-30T21:01:17.523Z,13.68
2018-08-30T21:03:51.967Z,11.57
2018-08-30T21:06:26.380Z,12.58
2018-08-30T21:09:00.704Z,11.08
2018-08-30T21:11:35.132Z,11.00
2018-08-30T21:14:09.683Z,10.75
2018-08-30T21:16:44.178Z,10.95
2018-08-30T21:19:18.638Z,9.98
2018-08-30T21:21:52.983Z,9.85
2018-08-30T21:24:27.470Z,11.35
2018-08-30T21:27:01.867Z,9.35
2018-08-30T21:29:36.111Z,9.03
2018-08-30T21:32:10.659Z,8.33
2018-08-30T21:34:45.067Z,8.70
2018-08-30T21:37:19.388Z,10.43
2018-08-30T21:39:53.767Z,9.15
2018-08-30T21:42:28.479Z,9.18
2018-08-30T21:45:02.980Z,8.60
2018-08-30T21:47:37.348Z,8.45
2018-08-30T21:50:11.819Z,7.55
2018-08-30T21:52:46.227Z,9.38
2018-08-30T21:55:20.459Z,8.55
2018-08-30T21:57:54.783Z,10.55
2018-08-30T22:00:29.643Z,11.10
2018-08-30T22:03:04.142Z,12.55
2018-08-30T22:05:38.496Z,10.95
2018-08-30T22:08:12.815Z,12.18
2018-08-30T22:10:47.155Z,10.70
2018-08-30T22:13:21.535Z,9.40
2018-08-30T22:15:55.855Z,10.53
2018-08-30T22:18:30.315Z,11.00
2018-08-30T22:21:04.705Z,8.70
2018-08-30T22:23:39.124Z,10.15
2018-08-30T22:26:13.836Z,9.15
2018-08-30T22:28:48.223Z,9.23
2018-08-30T22:31:22.555Z,8.58
2018-08-30T22:33:57.034Z,8.70
2018-08-30T22:36:31.343Z,8.80
2018-08-30T22:39:06.620Z,9.10
2018-08-30T22:41:40.996Z,9.38
2018-08-30T22:44:15.314Z,9.70
2018-08-30T22:46:49.656Z,8.45
2018-08-30T22:49:24.161Z,10.23
2018-08-30T22:51:58.603Z,10.13
2018-08-30T22:54:32.867Z,10.58
2018-08-30T22:57:07.372Z,8.75
2018-08-30T22:59:41.652Z,10.53
2018-08-30T23:02:16.187Z,13.95
2018-08-30T23:04:50.547Z,11.25
2018-08-30T23:07:24.964Z,10.18
2018-08-30T23:09:59.308Z,11.00
2018-08-30T23:12:33.704Z,10.43
2018-08-30T23:15:08.088Z,10.72
2018-08-30T23:17:42.371Z,11.18
2018-08-30T23:20:16.667Z,11.20
2018-08-30T23:22:51.016Z,10.15
2018-08-30T23:25:25.392Z,8.98
2018-08-30T23:27:59.940Z,9.60
2018-08-30T23:30:34.305Z,10.30
2018-08-30T23:33:08.655Z,8.18
2018-08-30T23:35:42.963Z,8.83
2018-08-30T23:38:17.267Z,9.30
2018-08-30T23:40:51.577Z,10.88
2018-08-30T23:43:25.866Z,8.80
2018-08-30T23:46:00.213Z,9.03
2018-08-30T23:48:34.576Z,8.40
2018-08-30T23:51:09.011Z,8.88
2018-08-30T23:53:43.363Z,8.80
2018-08-30T23:56:17.697Z,8.28
2018-08-30T23:59:03.468Z,8.40
